sensor_id;sensor_type;location;lat;lon;timestamp;P1;durP1;ratioP1;P2;durP2;ratioP2
12120;SDS011;6124;59.460;17.908;2022-07-06T00:01:50;2.60;;;1.50;;
12120;SDS011;6124;59.460;17.908;2022-07-06T00:04:17;5.60;;;1.50;;
12120;SDS011;6124;59.460;17.908;2022-07-06T00:06:45;4.20;;;1.60;;
12120;SDS011;6124;59.460;17.908;2022-07-06T00:09:12;3.77;;;1.23;;
12120;SDS011;6124;59.460;17.908;2022-07-06T00:11:39;3.30;;;1.20;;
12120;SDS011;6124;59.460;17.908;2022-07-06T00:14:06;3.37;;;1.30;;
12120;SDS011;6124;59.460;17.908;2022-07-06T00:16:33;2.47;;;1.43;;
12120;SDS011;6124;59.460;17.908;2022-07-06T00:19:02;2.47;;;1.20;;
12120;SDS011;6124;59.460;17.908;2022-07-06T00:21:29;3.37;;;1.10;;
12120;SDS011;6124;59.460;17.908;2022-07-06T00:23:56;4.33;;;1.30;;
12120;SDS011;6124;59.460;17.908;2022-07-06T00:26:24;4.50;;;1.30;;
12120;SDS011;6124;59.460;17.908;2022-07-06T00:28:51;5.30;;;1.60;;
12120;SDS011;6124;59.460;17.908;2022-07-06T00:31:18;3.50;;;1.37;;
12120;SDS011;6124;59.460;17.908;2022-07-06T00:33:45;4.90;;;1.27;;
12120;SDS011;6124;59.460;17.908;2022-07-06T00:36:14;2.67;;;1.20;;
12120;SDS011;6124;59.460;17.908;2022-07-06T00:38:44;4.60;;;1.53;;
12120;SDS011;6124;59.460;17.908;2022-07-06T00:41:12;3.93;;;1.50;;
12120;SDS011;6124;59.460;17.908;2022-07-06T00:43:49;3.17;;;1.40;;
12120;SDS011;6124;59.460;17.908;2022-07-06T00:46:17;2.17;;;1.10;;
12120;SDS011;6124;59.460;17.908;2022-07-06T00:48:44;4.83;;;1.30;;
12120;SDS011;6124;59.460;17.908;2022-07-06T00:51:11;3.27;;;1.40;;
12120;SDS011;6124;59.460;17.908;2022-07-06T00:53:40;5.00;;;1.33;;
12120;SDS011;6124;59.460;17.908;2022-07-06T00:56:08;3.17;;;1.37;;
12120;SDS011;6124;59.460;17.908;2022-07-06T00:58:36;2.50;;;1.20;;
12120;SDS011;6124;59.460;17.908;2022-07-06T01:01:03;4.17;;;1.40;;
12120;SDS011;6124;59.460;17.908;2022-07-06T01:03:30;4.47;;;1.60;;
12120;SDS011;6124;59.460;17.908;2022-07-06T01:05:59;5.17;;;1.60;;
12120;SDS011;6124;59.460;17.908;2022-07-06T01:08:26;4.60;;;1.50;;
12120;SDS011;6124;59.460;17.908;2022-07-06T01:10:54;5.53;;;1.80;;
12120;SDS011;6124;59.460;17.908;2022-07-06T01:13:22;2.10;;;1.40;;
12120;SDS011;6124;59.460;17.908;2022-07-06T01:15:49;3.77;;;1.40;;
12120;SDS011;6124;59.460;17.908;2022-07-06T01:18:16;2.03;;;1.30;;
12120;SDS011;6124;59.460;17.908;2022-07-06T01:20:45;4.13;;;1.27;;
12120;SDS011;6124;59.460;17.908;2022-07-06T01:23:12;3.70;;;1.27;;
12120;SDS011;6124;59.460;17.908;2022-07-06T01:25:39;4.40;;;1.50;;
12120;SDS011;6124;59.460;17.908;2022-07-06T01:28:06;7.40;;;1.40;;
12120;SDS011;6124;59.460;17.908;2022-07-06T01:30:33;3.77;;;1.70;;
12120;SDS011;6124;59.460;17.908;2022-07-06T01:33:01;5.30;;;1.60;;
12120;SDS011;6124;59.460;17.908;2022-07-06T01:35:28;3.13;;;1.47;;
12120;SDS011;6124;59.460;17.908;2022-07-06T01:37:57;3.60;;;1.43;;
12120;SDS011;6124;59.460;17.908;2022-07-06T01:40:24;3.23;;;1.23;;
12120;SDS011;6124;59.460;17.908;2022-07-06T01:42:51;5.03;;;1.53;;
12120;SDS011;6124;59.460;17.908;2022-07-06T01:45:18;3.20;;;1.40;;
12120;SDS011;6124;59.460;17.908;2022-07-06T01:47:46;4.03;;;1.50;;
12120;SDS011;6124;59.460;17.908;2022-07-06T01:50:13;4.80;;;1.67;;
12120;SDS011;6124;59.460;17.908;2022-07-06T01:52:40;6.20;;;1.50;;
12120;SDS011;6124;59.460;17.908;2022-07-06T01:55:09;5.20;;;1.50;;
12120;SDS011;6124;59.460;17.908;2022-07-06T01:57:36;4.57;;;1.50;;
12120;SDS011;6124;59.460;17.908;2022-07-06T02:00:04;6.83;;;1.70;;
12120;SDS011;6124;59.460;17.908;2022-07-06T02:02:31;4.03;;;1.47;;
12120;SDS011;6124;59.460;17.908;2022-07-06T02:04:58;6.03;;;2.07;;
12120;SDS011;6124;59.460;17.908;2022-07-06T02:07:26;3.57;;;1.30;;
12120;SDS011;6124;59.460;17.908;2022-07-06T02:09:53;2.63;;;1.63;;
12120;SDS011;6124;59.460;17.908;2022-07-06T02:12:21;3.67;;;1.67;;
12120;SDS011;6124;59.460;17.908;2022-07-06T02:14:48;4.30;;;1.50;;
12120;SDS011;6124;59.460;17.908;2022-07-06T02:17:15;3.57;;;1.43;;
12120;SDS011;6124;59.460;17.908;2022-07-06T02:19:43;2.73;;;1.40;;
12120;SDS011;6124;59.460;17.908;2022-07-06T02:22:10;4.07;;;1.80;;
12120;SDS011;6124;59.460;17.908;2022-07-06T02:24:37;8.23;;;1.90;;
12120;SDS011;6124;59.460;17.908;2022-07-06T02:27:04;4.73;;;1.60;;
12120;SDS011;6124;59.460;17.908;2022-07-06T02:29:33;2.53;;;1.50;;
12120;SDS011;6124;59.460;17.908;2022-07-06T02:32:00;8.63;;;1.97;;
12120;SDS011;6124;59.460;17.908;2022-07-06T02:34:41;4.43;;;1.40;;
12120;SDS011;6124;59.460;17.908;2022-07-06T02:37:08;3.73;;;1.50;;
12120;SDS011;6124;59.460;17.908;2022-07-06T02:39:36;3.50;;;1.50;;
12120;SDS011;6124;59.460;17.908;2022-07-06T02:42:03;5.57;;;1.70;;
12120;SDS011;6124;59.460;17.908;2022-07-06T02:44:30;4.10;;;1.67;;
12120;SDS011;6124;59.460;17.908;2022-07-06T02:46:58;4.17;;;2.00;;
12120;SDS011;6124;59.460;17.908;2022-07-06T02:49:26;8.00;;;1.77;;
12120;SDS011;6124;59.460;17.908;2022-07-06T02:51:53;3.20;;;1.60;;
12120;SDS011;6124;59.460;17.908;2022-07-06T02:54:20;5.03;;;1.80;;
12120;SDS011;6124;59.460;17.908;2022-07-06T02:56:47;4.77;;;1.80;;
12120;SDS011;6124;59.460;17.908;2022-07-06T02:59:17;4.37;;;1.47;;
12120;SDS011;6124;59.460;17.908;2022-07-06T03:01:44;6.60;;;2.07;;
12120;SDS011;6124;59.460;17.908;2022-07-06T03:04:13;6.17;;;1.60;;
12120;SDS011;6124;59.460;17.908;2022-07-06T03:06:40;4.67;;;1.70;;
12120;SDS011;6124;59.460;17.908;2022-07-06T03:09:07;3.53;;;1.80;;
12120;SDS011;6124;59.460;17.908;2022-07-06T03:11:34;7.27;;;1.73;;
12120;SDS011;6124;59.460;17.908;2022-07-06T03:14:01;3.93;;;1.57;;
12120;SDS011;6124;59.460;17.908;2022-07-06T03:16:29;4.70;;;1.83;;
12120;SDS011;6124;59.460;17.908;2022-07-06T03:18:56;7.97;;;1.90;;
12120;SDS011;6124;59.460;17.908;2022-07-06T03:21:25;4.33;;;1.60;;
12120;SDS011;6124;59.460;17.908;2022-07-06T03:23:52;6.43;;;1.90;;
12120;SDS011;6124;59.460;17.908;2022-07-06T03:26:19;1.87;;;1.47;;
12120;SDS011;6124;59.460;17.908;2022-07-06T03:28:46;5.83;;;2.00;;
12120;SDS011;6124;59.460;17.908;2022-07-06T03:31:13;4.80;;;1.87;;
12120;SDS011;6124;59.460;17.908;2022-07-06T03:33:40;7.07;;;2.00;;
12120;SDS011;6124;59.460;17.908;2022-07-06T03:36:08;4.37;;;1.93;;
12120;SDS011;6124;59.460;17.908;2022-07-06T03:38:37;5.10;;;2.00;;
12120;SDS011;6124;59.460;17.908;2022-07-06T03:41:04;3.47;;;1.70;;
12120;SDS011;6124;59.460;17.908;2022-07-06T03:43:31;5.73;;;1.67;;
12120;SDS011;6124;59.460;17.908;2022-07-06T03:45:58;7.47;;;1.70;;
12120;SDS011;6124;59.460;17.908;2022-07-06T03:48:25;4.50;;;1.57;;
12120;SDS011;6124;59.460;17.908;2022-07-06T03:50:52;3.20;;;1.70;;
12120;SDS011;6124;59.460;17.908;2022-07-06T03:53:19;5.87;;;1.83;;
12120;SDS011;6124;59.460;17.908;2022-07-06T03:55:48;6.00;;;2.00;;
12120;SDS011;6124;59.460;17.908;2022-07-06T03:58:29;5.90;;;1.60;;
12120;SDS011;6124;59.460;17.908;2022-07-06T04:00:56;5.67;;;1.80;;
12120;SDS011;6124;59.460;17.908;2022-07-06T04:03:23;6.50;;;1.73;;
12120;SDS011;6124;59.460;17.908;2022-07-06T04:05:50;3.73;;;1.70;;
12120;SDS011;6124;59.460;17.908;2022-07-06T04:08:18;5.83;;;1.93;;
12120;SDS011;6124;59.460;17.908;2022-07-06T04:10:45;4.83;;;1.60;;
12120;SDS011;6124;59.460;17.908;2022-07-06T04:13:14;6.03;;;1.93;;
12120;SDS011;6124;59.460;17.908;2022-07-06T04:15:41;4.73;;;1.60;;
12120;SDS011;6124;59.460;17.908;2022-07-06T04:18:08;4.23;;;1.90;;
12120;SDS011;6124;59.460;17.908;2022-07-06T04:20:35;5.50;;;2.00;;
12120;SDS011;6124;59.460;17.908;2022-07-06T04:23:02;5.33;;;1.80;;
12120;SDS011;6124;59.460;17.908;2022-07-06T04:25:29;4.67;;;1.83;;
12120;SDS011;6124;59.460;17.908;2022-07-06T04:27:57;5.40;;;1.80;;
12120;SDS011;6124;59.460;17.908;2022-07-06T04:30:25;6.90;;;1.70;;
12120;SDS011;6124;59.460;17.908;2022-07-06T04:32:53;4.63;;;1.70;;
12120;SDS011;6124;59.460;17.908;2022-07-06T04:35:20;5.10;;;1.70;;
12120;SDS011;6124;59.460;17.908;2022-07-06T04:37:47;5.70;;;1.87;;
12120;SDS011;6124;59.460;17.908;2022-07-06T04:40:15;5.27;;;1.80;;
12120;SDS011;6124;59.460;17.908;2022-07-06T04:42:42;5.87;;;1.90;;
12120;SDS011;6124;59.460;17.908;2022-07-06T04:45:10;5.43;;;2.00;;
12120;SDS011;6124;59.460;17.908;2022-07-06T04:47:38;4.30;;;1.87;;
12120;SDS011;6124;59.460;17.908;2022-07-06T04:50:06;5.97;;;1.60;;
12120;SDS011;6124;59.460;17.908;2022-07-06T04:52:33;4.77;;;1.77;;
12120;SDS011;6124;59.460;17.908;2022-07-06T04:55:00;5.73;;;1.70;;
12120;SDS011;6124;59.460;17.908;2022-07-06T04:57:29;3.87;;;1.60;;
12120;SDS011;6124;59.460;17.908;2022-07-06T04:59:56;6.27;;;1.70;;
12120;SDS011;6124;59.460;17.908;2022-07-06T05:02:23;4.50;;;1.70;;
12120;SDS011;6124;59.460;17.908;2022-07-06T05:04:52;8.03;;;1.67;;
12120;SDS011;6124;59.460;17.908;2022-07-06T05:07:19;5.23;;;1.67;;
12120;SDS011;6124;59.460;17.908;2022-07-06T05:09:46;5.10;;;1.80;;
12120;SDS011;6124;59.460;17.908;2022-07-06T05:12:13;4.23;;;1.77;;
12120;SDS011;6124;59.460;17.908;2022-07-06T05:14:40;6.50;;;1.70;;
12120;SDS011;6124;59.460;17.908;2022-07-06T05:17:07;4.40;;;1.80;;
12120;SDS011;6124;59.460;17.908;2022-07-06T05:19:35;5.57;;;2.20;;
12120;SDS011;6124;59.460;17.908;2022-07-06T05:22:03;4.87;;;1.80;;
12120;SDS011;6124;59.460;17.908;2022-07-06T05:24:30;5.63;;;1.80;;
12120;SDS011;6124;59.460;17.908;2022-07-06T05:26:58;6.70;;;2.00;;
12120;SDS011;6124;59.460;17.908;2022-07-06T05:29:25;4.57;;;1.60;;
12120;SDS011;6124;59.460;17.908;2022-07-06T05:31:52;5.80;;;1.97;;
12120;SDS011;6124;59.460;17.908;2022-07-06T05:34:19;3.77;;;1.87;;
12120;SDS011;6124;59.460;17.908;2022-07-06T05:36:46;5.77;;;1.87;;
12120;SDS011;6124;59.460;17.908;2022-07-06T05:39:15;8.30;;;2.20;;
12120;SDS011;6124;59.460;17.908;2022-07-06T05:41:44;3.57;;;1.80;;
12120;SDS011;6124;59.460;17.908;2022-07-06T05:44:11;6.83;;;1.70;;
12120;SDS011;6124;59.460;17.908;2022-07-06T05:46:39;4.80;;;1.77;;
12120;SDS011;6124;59.460;17.908;2022-07-06T05:49:06;4.27;;;1.73;;
12120;SDS011;6124;59.460;17.908;2022-07-06T05:51:51;5.00;;;1.60;;
12120;SDS011;6124;59.460;17.908;2022-07-06T05:54:20;3.13;;;1.73;;
12120;SDS011;6124;59.460;17.908;2022-07-06T05:56:48;4.70;;;1.87;;
12120;SDS011;6124;59.460;17.908;2022-07-06T05:59:15;7.17;;;2.27;;
12120;SDS011;6124;59.460;17.908;2022-07-06T06:01:42;5.90;;;2.00;;
12120;SDS011;6124;59.460;17.908;2022-07-06T06:04:10;5.30;;;1.70;;
12120;SDS011;6124;59.460;17.908;2022-07-06T06:06:37;4.87;;;1.93;;
12120;SDS011;6124;59.460;17.908;2022-07-06T06:09:04;5.93;;;2.00;;
12120;SDS011;6124;59.460;17.908;2022-07-06T06:11:32;4.30;;;1.80;;
12120;SDS011;6124;59.460;17.908;2022-07-06T06:13:59;7.90;;;2.03;;
12120;SDS011;6124;59.460;17.908;2022-07-06T06:16:27;6.30;;;2.00;;
12120;SDS011;6124;59.460;17.908;2022-07-06T06:18:54;5.87;;;1.73;;
12120;SDS011;6124;59.460;17.908;2022-07-06T06:21:21;6.53;;;2.13;;
12120;SDS011;6124;59.460;17.908;2022-07-06T06:23:48;4.73;;;1.63;;
12120;SDS011;6124;59.460;17.908;2022-07-06T06:26:15;6.57;;;1.70;;
12120;SDS011;6124;59.460;17.908;2022-07-06T06:28:44;3.13;;;1.77;;
12120;SDS011;6124;59.460;17.908;2022-07-06T06:31:11;3.97;;;1.87;;
12120;SDS011;6124;59.460;17.908;2022-07-06T06:33:38;4.63;;;1.90;;
12120;SDS011;6124;59.460;17.908;2022-07-06T06:36:05;5.50;;;2.03;;
12120;SDS011;6124;59.460;17.908;2022-07-06T06:38:33;5.43;;;2.07;;
12120;SDS011;6124;59.460;17.908;2022-07-06T06:41:00;3.77;;;1.90;;
12120;SDS011;6124;59.460;17.908;2022-07-06T06:43:28;9.53;;;2.10;;
12120;SDS011;6124;59.460;17.908;2022-07-06T06:45:56;5.07;;;1.90;;
12120;SDS011;6124;59.460;17.908;2022-07-06T06:48:23;7.00;;;1.93;;
12120;SDS011;6124;59.460;17.908;2022-07-06T06:50:50;5.13;;;1.80;;
12120;SDS011;6124;59.460;17.908;2022-07-06T06:53:18;3.40;;;1.63;;
12120;SDS011;6124;59.460;17.908;2022-07-06T06:55:45;9.20;;;2.03;;
12120;SDS011;6124;59.460;17.908;2022-07-06T06:58:12;3.97;;;1.93;;
12120;SDS011;6124;59.460;17.908;2022-07-06T07:00:39;4.43;;;1.73;;
12120;SDS011;6124;59.460;17.908;2022-07-06T07:03:09;5.77;;;2.07;;
12120;SDS011;6124;59.460;17.908;2022-07-06T07:05:36;6.27;;;1.90;;
12120;SDS011;6124;59.460;17.908;2022-07-06T07:08:04;5.67;;;1.70;;
12120;SDS011;6124;59.460;17.908;2022-07-06T07:10:31;3.57;;;1.90;;
12120;SDS011;6124;59.460;17.908;2022-07-06T07:12:58;7.43;;;2.10;;
12120;SDS011;6124;59.460;17.908;2022-07-06T07:15:26;3.67;;;1.50;;
12120;SDS011;6124;59.460;17.908;2022-07-06T07:17:53;7.27;;;2.40;;
12120;SDS011;6124;59.460;17.908;2022-07-06T07:20:22;5.07;;;1.87;;
12120;SDS011;6124;59.460;17.908;2022-07-06T07:22:50;8.17;;;2.27;;
12120;SDS011;6124;59.460;17.908;2022-07-06T07:25:17;7.27;;;2.00;;
12120;SDS011;6124;59.460;17.908;2022-07-06T07:27:44;7.20;;;2.20;;
12120;SDS011;6124;59.460;17.908;2022-07-06T07:30:11;4.67;;;1.90;;
12120;SDS011;6124;59.460;17.908;2022-07-06T07:32:38;5.37;;;2.00;;
12120;SDS011;6124;59.460;17.908;2022-07-06T07:35:06;5.73;;;1.60;;
12120;SDS011;6124;59.460;17.908;2022-07-06T07:37:35;5.00;;;1.87;;
12120;SDS011;6124;59.460;17.908;2022-07-06T07:40:02;5.03;;;1.80;;
12120;SDS011;6124;59.460;17.908;2022-07-06T07:42:31;4.23;;;1.87;;
12120;SDS011;6124;59.460;17.908;2022-07-06T07:44:58;4.73;;;1.80;;
12120;SDS011;6124;59.460;17.908;2022-07-06T07:47:25;6.17;;;1.83;;
12120;SDS011;6124;59.460;17.908;2022-07-06T07:49:52;4.80;;;1.60;;
12120;SDS011;6124;59.460;17.908;2022-07-06T07:52:20;7.63;;;2.10;;
12120;SDS011;6124;59.460;17.908;2022-07-06T07:54:48;2.47;;;1.60;;
12120;SDS011;6124;59.460;17.908;2022-07-06T07:57:15;5.70;;;1.83;;
12120;SDS011;6124;59.460;17.908;2022-07-06T07:59:42;6.27;;;1.57;;
12120;SDS011;6124;59.460;17.908;2022-07-06T08:02:10;4.03;;;1.57;;
12120;SDS011;6124;59.460;17.908;2022-07-06T08:04:37;2.50;;;1.50;;
12120;SDS011;6124;59.460;17.908;2022-07-06T08:07:04;7.10;;;1.70;;
12120;SDS011;6124;59.460;17.908;2022-07-06T08:09:32;4.67;;;1.60;;
12120;SDS011;6124;59.460;17.908;2022-07-06T08:12:00;3.60;;;1.47;;
12120;SDS011;6124;59.460;17.908;2022-07-06T08:14:27;6.10;;;1.70;;
12120;SDS011;6124;59.460;17.908;2022-07-06T08:16:55;7.83;;;1.77;;
12120;SDS011;6124;59.460;17.908;2022-07-06T08:19:22;7.40;;;1.97;;
12120;SDS011;6124;59.460;17.908;2022-07-06T08:21:50;3.60;;;1.40;;
12120;SDS011;6124;59.460;17.908;2022-07-06T08:24:17;4.80;;;1.67;;
12120;SDS011;6124;59.460;17.908;2022-07-06T08:26:44;4.43;;;1.40;;
12120;SDS011;6124;59.460;17.908;2022-07-06T08:29:13;4.60;;;1.77;;
12120;SDS011;6124;59.460;17.908;2022-07-06T08:31:40;4.17;;;1.60;;
12120;SDS011;6124;59.460;17.908;2022-07-06T08:34:07;3.00;;;1.33;;
12120;SDS011;6124;59.460;17.908;2022-07-06T08:36:35;4.30;;;1.40;;
12120;SDS011;6124;59.460;17.908;2022-07-06T08:39:02;3.33;;;1.20;;
12120;SDS011;6124;59.460;17.908;2022-07-06T08:41:29;6.60;;;1.60;;
12120;SDS011;6124;59.460;17.908;2022-07-06T08:43:56;3.97;;;1.30;;
12120;SDS011;6124;59.460;17.908;2022-07-06T08:46:25;3.97;;;1.50;;
12120;SDS011;6124;59.460;17.908;2022-07-06T08:48:54;3.37;;;1.30;;
12120;SDS011;6124;59.460;17.908;2022-07-06T08:51:22;2.70;;;1.23;;
12120;SDS011;6124;59.460;17.908;2022-07-06T08:53:51;2.73;;;1.40;;
12120;SDS011;6124;59.460;17.908;2022-07-06T08:56:18;1.83;;;1.03;;
12120;SDS011;6124;59.460;17.908;2022-07-06T08:58:45;7.57;;;1.53;;
12120;SDS011;6124;59.460;17.908;2022-07-06T09:01:12;3.70;;;1.20;;
12120;SDS011;6124;59.460;17.908;2022-07-06T09:03:41;2.63;;;1.27;;
12120;SDS011;6124;59.460;17.908;2022-07-06T09:06:09;2.67;;;1.30;;
12120;SDS011;6124;59.460;17.908;2022-07-06T09:08:36;3.63;;;1.47;;
12120;SDS011;6124;59.460;17.908;2022-07-06T09:11:04;3.17;;;1.30;;
12120;SDS011;6124;59.460;17.908;2022-07-06T09:13:31;3.97;;;1.30;;
12120;SDS011;6124;59.460;17.908;2022-07-06T09:16:08;3.33;;;1.43;;
12120;SDS011;6124;59.460;17.908;2022-07-06T09:18:36;3.60;;;1.30;;
12120;SDS011;6124;59.460;17.908;2022-07-06T09:21:05;2.73;;;1.43;;
12120;SDS011;6124;59.460;17.908;2022-07-06T09:23:32;3.30;;;1.20;;
12120;SDS011;6124;59.460;17.908;2022-07-06T09:26:01;4.50;;;1.37;;
12120;SDS011;6124;59.460;17.908;2022-07-06T09:28:39;2.47;;;1.20;;
12120;SDS011;6124;59.460;17.908;2022-07-06T09:31:06;3.80;;;1.33;;
12120;SDS011;6124;59.460;17.908;2022-07-06T09:33:34;3.30;;;1.50;;
12120;SDS011;6124;59.460;17.908;2022-07-06T09:36:01;5.63;;;1.40;;
12120;SDS011;6124;59.460;17.908;2022-07-06T09:38:30;2.67;;;1.40;;
12120;SDS011;6124;59.460;17.908;2022-07-06T09:40:57;3.30;;;1.20;;
12120;SDS011;6124;59.460;17.908;2022-07-06T09:43:27;2.93;;;1.40;;
12120;SDS011;6124;59.460;17.908;2022-07-06T09:45:55;5.50;;;1.60;;
12120;SDS011;6124;59.460;17.908;2022-07-06T09:48:23;6.13;;;1.50;;
12120;SDS011;6124;59.460;17.908;2022-07-06T09:50:51;4.57;;;1.57;;
12120;SDS011;6124;59.460;17.908;2022-07-06T09:53:19;4.10;;;1.47;;
12120;SDS011;6124;59.460;17.908;2022-07-06T09:55:48;5.07;;;1.60;;
12120;SDS011;6124;59.460;17.908;2022-07-06T09:58:16;3.20;;;1.37;;
12120;SDS011;6124;59.460;17.908;2022-07-06T10:00:43;4.90;;;1.40;;
12120;SDS011;6124;59.460;17.908;2022-07-06T10:03:11;2.70;;;1.40;;
12120;SDS011;6124;59.460;17.908;2022-07-06T10:05:39;5.63;;;1.60;;
12120;SDS011;6124;59.460;17.908;2022-07-06T10:08:07;4.13;;;1.40;;
12120;SDS011;6124;59.460;17.908;2022-07-06T10:10:35;2.23;;;1.37;;
12120;SDS011;6124;59.460;17.908;2022-07-06T10:13:04;2.10;;;1.30;;
12120;SDS011;6124;59.460;17.908;2022-07-06T10:15:32;2.63;;;1.47;;
12120;SDS011;6124;59.460;17.908;2022-07-06T10:18:00;3.10;;;1.40;;
12120;SDS011;6124;59.460;17.908;2022-07-06T10:20:28;3.70;;;1.50;;
12120;SDS011;6124;59.460;17.908;2022-07-06T10:22:57;3.90;;;1.50;;
12120;SDS011;6124;59.460;17.908;2022-07-06T10:25:25;2.43;;;1.20;;
12120;SDS011;6124;59.460;17.908;2022-07-06T10:27:53;2.37;;;1.10;;
12120;SDS011;6124;59.460;17.908;2022-07-06T10:30:22;1.17;;;1.07;;
12120;SDS011;6124;59.460;17.908;2022-07-06T10:32:50;4.10;;;1.30;;
12120;SDS011;6124;59.460;17.908;2022-07-06T10:35:17;2.70;;;1.30;;
12120;SDS011;6124;59.460;17.908;2022-07-06T10:37:45;2.17;;;1.10;;
12120;SDS011;6124;59.460;17.908;2022-07-06T10:40:13;2.33;;;1.27;;
12120;SDS011;6124;59.460;17.908;2022-07-06T10:42:58;2.60;;;1.30;;
12120;SDS011;6124;59.460;17.908;2022-07-06T10:48:19;2.43;;;1.03;;
12120;SDS011;6124;59.460;17.908;2022-07-06T10:50:48;2.00;;;1.23;;
12120;SDS011;6124;59.460;17.908;2022-07-06T10:53:16;2.77;;;1.30;;
12120;SDS011;6124;59.460;17.908;2022-07-06T10:55:44;2.33;;;1.23;;
12120;SDS011;6124;59.460;17.908;2022-07-06T10:58:12;3.40;;;1.30;;
12120;SDS011;6124;59.460;17.908;2022-07-06T11:00:50;4.47;;;1.37;;
12120;SDS011;6124;59.460;17.908;2022-07-06T11:03:31;2.97;;;1.20;;
12120;SDS011;6124;59.460;17.908;2022-07-06T11:05:59;1.93;;;1.27;;
12120;SDS011;6124;59.460;17.908;2022-07-06T11:08:42;2.00;;;1.30;;
12120;SDS011;6124;59.460;17.908;2022-07-06T11:11:13;2.73;;;1.50;;
12120;SDS011;6124;59.460;17.908;2022-07-06T11:13:42;3.87;;;1.20;;
12120;SDS011;6124;59.460;17.908;2022-07-06T11:16:09;3.97;;;1.30;;
12120;SDS011;6124;59.460;17.908;2022-07-06T11:18:41;2.63;;;1.27;;
12120;SDS011;6124;59.460;17.908;2022-07-06T11:21:15;3.77;;;1.30;;
12120;SDS011;6124;59.460;17.908;2022-07-06T11:23:42;3.03;;;1.40;;
12120;SDS011;6124;59.460;17.908;2022-07-06T11:26:09;4.70;;;1.30;;
12120;SDS011;6124;59.460;17.908;2022-07-06T11:28:37;5.37;;;1.30;;
12120;SDS011;6124;59.460;17.908;2022-07-06T11:31:04;2.73;;;1.20;;
12120;SDS011;6124;59.460;17.908;2022-07-06T11:33:32;2.33;;;1.30;;
12120;SDS011;6124;59.460;17.908;2022-07-06T11:36:13;1.63;;;1.20;;
12120;SDS011;6124;59.460;17.908;2022-07-06T11:38:41;1.63;;;1.00;;
12120;SDS011;6124;59.460;17.908;2022-07-06T11:41:08;1.83;;;1.00;;
12120;SDS011;6124;59.460;17.908;2022-07-06T11:43:37;2.40;;;1.30;;
12120;SDS011;6124;59.460;17.908;2022-07-06T11:46:17;3.47;;;1.20;;
12120;SDS011;6124;59.460;17.908;2022-07-06T11:48:45;2.97;;;1.30;;
12120;SDS011;6124;59.460;17.908;2022-07-06T11:51:13;3.33;;;1.30;;
12120;SDS011;6124;59.460;17.908;2022-07-06T11:53:44;1.97;;;1.13;;
12120;SDS011;6124;59.460;17.908;2022-07-06T11:56:12;2.13;;;0.90;;
12120;SDS011;6124;59.460;17.908;2022-07-06T11:58:39;1.77;;;1.03;;
12120;SDS011;6124;59.460;17.908;2022-07-06T12:01:09;1.60;;;0.90;;
12120;SDS011;6124;59.460;17.908;2022-07-06T12:03:36;2.33;;;1.13;;
12120;SDS011;6124;59.460;17.908;2022-07-06T12:06:04;2.80;;;1.30;;
12120;SDS011;6124;59.460;17.908;2022-07-06T12:08:32;2.20;;;1.10;;
12120;SDS011;6124;59.460;17.908;2022-07-06T12:11:07;1.60;;;1.17;;
12120;SDS011;6124;59.460;17.908;2022-07-06T12:13:35;2.20;;;1.30;;
12120;SDS011;6124;59.460;17.908;2022-07-06T12:16:08;2.50;;;1.17;;
12120;SDS011;6124;59.460;17.908;2022-07-06T12:18:36;2.10;;;1.23;;
12120;SDS011;6124;59.460;17.908;2022-07-06T12:21:03;5.23;;;1.40;;
12120;SDS011;6124;59.460;17.908;2022-07-06T12:23:39;3.17;;;1.40;;
12120;SDS011;6124;59.460;17.908;2022-07-06T12:26:06;4.20;;;1.30;;
12120;SDS011;6124;59.460;17.908;2022-07-06T12:28:33;2.57;;;1.30;;
12120;SDS011;6124;59.460;17.908;2022-07-06T12:31:01;1.93;;;1.20;;
12120;SDS011;6124;59.460;17.908;2022-07-06T12:33:28;1.73;;;1.07;;
12120;SDS011;6124;59.460;17.908;2022-07-06T12:35:55;1.37;;;1.00;;
12120;SDS011;6124;59.460;17.908;2022-07-06T12:38:23;2.87;;;1.10;;
12120;SDS011;6124;59.460;17.908;2022-07-06T12:40:52;2.47;;;1.10;;
12120;SDS011;6124;59.460;17.908;2022-07-06T12:46:22;1.70;;;0.93;;
12120;SDS011;6124;59.460;17.908;2022-07-06T12:48:52;2.53;;;1.20;;
12120;SDS011;6124;59.460;17.908;2022-07-06T12:51:20;2.20;;;1.20;;
12120;SDS011;6124;59.460;17.908;2022-07-06T12:53:47;2.50;;;1.20;;
12120;SDS011;6124;59.460;17.908;2022-07-06T12:56:16;6.03;;;1.20;;
12120;SDS011;6124;59.460;17.908;2022-07-06T12:58:57;2.03;;;1.20;;
12120;SDS011;6124;59.460;17.908;2022-07-06T13:01:24;4.40;;;1.20;;
12120;SDS011;6124;59.460;17.908;2022-07-06T13:03:55;4.00;;;1.20;;
12120;SDS011;6124;59.460;17.908;2022-07-06T13:06:32;2.23;;;1.23;;
12120;SDS011;6124;59.460;17.908;2022-07-06T13:08:59;1.67;;;1.10;;
12120;SDS011;6124;59.460;17.908;2022-07-06T13:11:27;3.37;;;1.03;;
12120;SDS011;6124;59.460;17.908;2022-07-06T13:13:55;1.90;;;1.00;;
12120;SDS011;6124;59.460;17.908;2022-07-06T13:16:22;3.07;;;1.20;;
12120;SDS011;6124;59.460;17.908;2022-07-06T13:18:55;2.63;;;1.00;;
12120;SDS011;6124;59.460;17.908;2022-07-06T13:21:22;3.43;;;1.20;;
12120;SDS011;6124;59.460;17.908;2022-07-06T13:23:49;3.50;;;1.50;;
12120;SDS011;6124;59.460;17.908;2022-07-06T13:26:16;2.67;;;1.10;;
12120;SDS011;6124;59.460;17.908;2022-07-06T13:28:45;4.97;;;1.20;;
12120;SDS011;6124;59.460;17.908;2022-07-06T13:31:12;2.30;;;1.10;;
12120;SDS011;6124;59.460;17.908;2022-07-06T13:33:39;1.67;;;1.00;;
12120;SDS011;6124;59.460;17.908;2022-07-06T13:36:07;1.43;;;0.80;;
12120;SDS011;6124;59.460;17.908;2022-07-06T13:38:35;2.50;;;0.90;;
12120;SDS011;6124;59.460;17.908;2022-07-06T13:41:02;2.67;;;1.00;;
12120;SDS011;6124;59.460;17.908;2022-07-06T13:43:29;1.17;;;0.90;;
12120;SDS011;6124;59.460;17.908;2022-07-06T13:46:02;1.40;;;0.90;;
12120;SDS011;6124;59.460;17.908;2022-07-06T13:48:30;1.60;;;1.00;;
12120;SDS011;6124;59.460;17.908;2022-07-06T13:50:57;1.13;;;0.90;;
12120;SDS011;6124;59.460;17.908;2022-07-06T13:53:24;2.77;;;1.00;;
12120;SDS011;6124;59.460;17.908;2022-07-06T13:55:51;1.83;;;0.90;;
12120;SDS011;6124;59.460;17.908;2022-07-06T13:58:19;1.10;;;1.00;;
12120;SDS011;6124;59.460;17.908;2022-07-06T14:00:46;1.70;;;0.93;;
12120;SDS011;6124;59.460;17.908;2022-07-06T14:03:15;2.87;;;0.90;;
12120;SDS011;6124;59.460;17.908;2022-07-06T14:05:42;2.10;;;1.00;;
12120;SDS011;6124;59.460;17.908;2022-07-06T14:08:09;2.30;;;1.03;;
12120;SDS011;6124;59.460;17.908;2022-07-06T14:10:37;1.10;;;0.80;;
12120;SDS011;6124;59.460;17.908;2022-07-06T14:13:04;1.37;;;0.87;;
12120;SDS011;6124;59.460;17.908;2022-07-06T14:15:32;1.37;;;0.80;;
12120;SDS011;6124;59.460;17.908;2022-07-06T14:17:59;1.73;;;1.00;;
12120;SDS011;6124;59.460;17.908;2022-07-06T14:20:27;0.80;;;0.80;;
12120;SDS011;6124;59.460;17.908;2022-07-06T14:22:54;1.83;;;0.90;;
12120;SDS011;6124;59.460;17.908;2022-07-06T14:25:22;1.47;;;0.90;;
12120;SDS011;6124;59.460;17.908;2022-07-06T14:27:49;3.93;;;1.10;;
12120;SDS011;6124;59.460;17.908;2022-07-06T14:30:16;1.70;;;0.93;;
12120;SDS011;6124;59.460;17.908;2022-07-06T14:32:43;2.77;;;1.10;;
12120;SDS011;6124;59.460;17.908;2022-07-06T14:35:10;1.77;;;1.07;;
12120;SDS011;6124;59.460;17.908;2022-07-06T14:37:39;2.00;;;0.80;;
12120;SDS011;6124;59.460;17.908;2022-07-06T14:40:06;2.47;;;1.20;;
12120;SDS011;6124;59.460;17.908;2022-07-06T14:42:34;1.40;;;0.90;;
12120;SDS011;6124;59.460;17.908;2022-07-06T14:45:01;2.60;;;1.10;;
12120;SDS011;6124;59.460;17.908;2022-07-06T14:47:28;2.47;;;1.13;;
12120;SDS011;6124;59.460;17.908;2022-07-06T14:49:55;2.30;;;0.97;;
12120;SDS011;6124;59.460;17.908;2022-07-06T14:52:23;2.07;;;1.20;;
12120;SDS011;6124;59.460;17.908;2022-07-06T14:54:51;1.47;;;1.30;;
12120;SDS011;6124;59.460;17.908;2022-07-06T14:57:18;2.00;;;1.20;;
12120;SDS011;6124;59.460;17.908;2022-07-06T14:59:45;2.00;;;1.00;;